sensor_id;sensor_type;location;lat;lon;timestamp;pressure;altitude;pressure_sealevel;temperature
51149;BMP280;37210;50.058;8.688;2023-03-05T00:01:38;100624.31;;;7.95
51149;BMP280;37210;50.058;8.688;2023-03-05T00:04:09;100628.31;;;7.75
51149;BMP280;37210;50.058;8.688;2023-03-05T00:06:39;100609.00;;;7.63
51149;BMP280;37210;50.058;8.688;2023-03-05T00:09:06;100493.53;;;7.10
51149;BMP280;37210;50.058;8.688;2023-03-05T00:11:35;100615.59;;;7.93
51149;BMP280;37210;50.058;8.688;2023-03-05T00:14:03;100621.50;;;7.85
51149;BMP280;37210;50.058;8.688;2023-03-05T00:16:33;100581.88;;;7.52
51149;BMP280;37210;50.058;8.688;2023-03-05T00:19:01;100623.22;;;7.83
51149;BMP280;37210;50.058;8.688;2023-03-05T00:21:31;100532.94;;;7.31
51149;BMP280;37210;50.058;8.688;2023-03-05T00:24:00;100627.31;;;7.69
51149;BMP280;37210;50.058;8.688;2023-03-05T00:26:30;100612.59;;;7.71
51149;BMP280;37210;50.058;8.688;2023-03-05T00:28:59;100623.22;;;7.81
51149;BMP280;37210;50.058;8.688;2023-03-05T00:31:29;100609.94;;;7.68
51149;BMP280;37210;50.058;8.688;2023-03-05T00:34:02;100485.44;;;6.93
51149;BMP280;37210;50.058;8.688;2023-03-05T00:36:31;100610.97;;;7.76
51149;BMP280;37210;50.058;8.688;2023-03-05T00:38:59;100606.38;;;7.61
51149;BMP280;37210;50.058;8.688;2023-03-05T00:41:28;100613.44;;;7.70
51149;BMP280;37210;50.058;8.688;2023-03-05T00:43:56;100613.19;;;7.55
51149;BMP280;37210;50.058;8.688;2023-03-05T00:46:24;100607.38;;;7.69
51149;BMP280;37210;50.058;8.688;2023-03-05T00:48:52;100587.25;;;7.59
51149;BMP280;37210;50.058;8.688;2023-03-05T00:51:22;100608.13;;;7.64
51149;BMP280;37210;50.058;8.688;2023-03-05T00:53:51;100509.94;;;7.06
51149;BMP280;37210;50.058;8.688;2023-03-05T00:56:19;100530.75;;;7.06
51149;BMP280;37210;50.058;8.688;2023-03-05T00:58:47;100572.00;;;7.33
51149;BMP280;37210;50.058;8.688;2023-03-05T01:01:14;100592.88;;;7.34
51149;BMP280;37210;50.058;8.688;2023-03-05T01:03:42;100589.59;;;7.47
51149;BMP280;37210;50.058;8.688;2023-03-05T01:06:12;100557.34;;;7.38
51149;BMP280;37210;50.058;8.688;2023-03-05T01:08:43;100594.09;;;7.54
51149;BMP280;37210;50.058;8.688;2023-03-05T01:11:11;100508.97;;;7.01
51149;BMP280;37210;50.058;8.688;2023-03-05T01:13:39;100571.97;;;7.30
51149;BMP280;37210;50.058;8.688;2023-03-05T01:16:07;100558.91;;;7.28
51149;BMP280;37210;50.058;8.688;2023-03-05T01:18:36;100375.69;;;6.17
51149;BMP280;37210;50.058;8.688;2023-03-05T01:21:04;100575.78;;;7.51
51149;BMP280;37210;50.058;8.688;2023-03-05T01:23:32;100575.75;;;7.48
51149;BMP280;37210;50.058;8.688;2023-03-05T01:26:04;100557.25;;;7.33
51149;BMP280;37210;50.058;8.688;2023-03-05T01:28:34;100580.78;;;7.38
51149;BMP280;37210;50.058;8.688;2023-03-05T01:31:06;100581.88;;;7.50
51149;BMP280;37210;50.058;8.688;2023-03-05T01:33:35;100536.91;;;7.11
51149;BMP280;37210;50.058;8.688;2023-03-05T01:36:06;100546.56;;;7.18
51149;BMP280;37210;50.058;8.688;2023-03-05T01:38:35;100571.28;;;7.41
51149;BMP280;37210;50.058;8.688;2023-03-05T01:41:04;100567.94;;;7.48
51149;BMP280;37210;50.058;8.688;2023-03-05T01:43:31;100556.50;;;7.39
51149;BMP280;37210;50.058;8.688;2023-03-05T01:46:22;100559.28;;;7.49
51149;BMP280;37210;50.058;8.688;2023-03-05T01:48:58;100540.56;;;7.20
51149;BMP280;37210;50.058;8.688;2023-03-05T01:51:34;100537.06;;;7.20
51149;BMP280;37210;50.058;8.688;2023-03-05T01:54:05;100557.25;;;7.33
51149;BMP280;37210;50.058;8.688;2023-03-05T01:56:37;100531.94;;;7.23
51149;BMP280;37210;50.058;8.688;2023-03-05T01:59:06;100554.94;;;7.48
51149;BMP280;37210;50.058;8.688;2023-03-05T02:01:38;100552.94;;;7.32
51149;BMP280;37210;50.058;8.688;2023-03-05T02:04:13;100543.44;;;7.36
51149;BMP280;37210;50.058;8.688;2023-03-05T02:06:43;100537.38;;;7.37
51149;BMP280;37210;50.058;8.688;2023-03-05T02:09:12;100539.91;;;7.32
51149;BMP280;37210;50.058;8.688;2023-03-05T02:11:42;100541.63;;;7.32
51149;BMP280;37210;50.058;8.688;2023-03-05T02:14:09;100529.34;;;7.24
51149;BMP280;37210;50.058;8.688;2023-03-05T02:16:37;100536.31;;;7.25
51149;BMP280;37210;50.058;8.688;2023-03-05T02:19:09;100534.72;;;7.34
51149;BMP280;37210;50.058;8.688;2023-03-05T02:21:41;100510.25;;;7.24
51149;BMP280;37210;50.058;8.688;2023-03-05T02:24:12;100523.34;;;7.27
51149;BMP280;37210;50.058;8.688;2023-03-05T02:26:40;100449.69;;;6.82
51149;BMP280;37210;50.058;8.688;2023-03-05T02:29:13;100524.25;;;7.31
51149;BMP280;37210;50.058;8.688;2023-03-05T02:31:43;100502.50;;;7.25
51149;BMP280;37210;50.058;8.688;2023-03-05T02:34:12;100518.91;;;7.21
51149;BMP280;37210;50.058;8.688;2023-03-05T02:36:41;100511.81;;;7.13
51149;BMP280;37210;50.058;8.688;2023-03-05T02:39:09;100511.34;;;7.37
51149;BMP280;37210;50.058;8.688;2023-03-05T02:41:36;100514.94;;;7.43
51149;BMP280;37210;50.058;8.688;2023-03-05T02:44:04;100500.81;;;7.28
51149;BMP280;37210;50.058;8.688;2023-03-05T02:46:31;100513.03;;;7.33
51149;BMP280;37210;50.058;8.688;2023-03-05T02:48:59;100513.94;;;7.35
51149;BMP280;37210;50.058;8.688;2023-03-05T02:51:27;100499.84;;;7.22
51149;BMP280;37210;50.058;8.688;2023-03-05T02:53:56;100510.59;;;7.42
51149;BMP280;37210;50.058;8.688;2023-03-05T02:56:26;100483.41;;;7.25
51149;BMP280;37210;50.058;8.688;2023-03-05T02:58:53;100493.72;;;7.20
51149;BMP280;37210;50.058;8.688;2023-03-05T03:01:21;100505.06;;;7.24
51149;BMP280;37210;50.058;8.688;2023-03-05T03:03:49;100473.41;;;6.98
51149;BMP280;37210;50.058;8.688;2023-03-05T03:06:16;100475.50;;;7.19
51149;BMP280;37210;50.058;8.688;2023-03-05T03:08:44;100497.38;;;7.30
51149;BMP280;37210;50.058;8.688;2023-03-05T03:11:13;100466.72;;;7.14
51149;BMP280;37210;50.058;8.688;2023-03-05T03:13:41;100456.91;;;6.96
51149;BMP280;37210;50.058;8.688;2023-03-05T03:16:11;100489.34;;;7.18
51149;BMP280;37210;50.058;8.688;2023-03-05T03:18:40;100464.84;;;7.05
51149;BMP280;37210;50.058;8.688;2023-03-05T03:21:15;100483.31;;;7.20
51149;BMP280;37210;50.058;8.688;2023-03-05T03:23:44;100475.41;;;7.14
51149;BMP280;37210;50.058;8.688;2023-03-05T03:26:13;100329.25;;;6.32
51149;BMP280;37210;50.058;8.688;2023-03-05T03:28:42;100474.69;;;7.21
51149;BMP280;37210;50.058;8.688;2023-03-05T03:31:10;100480.56;;;7.11
51149;BMP280;37210;50.058;8.688;2023-03-05T03:33:38;100470.91;;;7.04
51149;BMP280;37210;50.058;8.688;2023-03-05T03:36:06;100478.09;;;7.17
51149;BMP280;37210;50.058;8.688;2023-03-05T03:38:34;100464.13;;;7.14
51149;BMP280;37210;50.058;8.688;2023-03-05T03:41:04;100472.03;;;7.20
51149;BMP280;37210;50.058;8.688;2023-03-05T03:43:34;100472.00;;;7.18
51149;BMP280;37210;50.058;8.688;2023-03-05T03:46:04;100469.34;;;7.15
51149;BMP280;37210;50.058;8.688;2023-03-05T03:48:32;100462.41;;;7.14
51149;BMP280;37210;50.058;8.688;2023-03-05T03:51:03;100456.28;;;7.11
51149;BMP280;37210;50.058;8.688;2023-03-05T03:53:32;100450.00;;;7.00
51149;BMP280;37210;50.058;8.688;2023-03-05T03:55:59;100418.44;;;6.79
51149;BMP280;37210;50.058;8.688;2023-03-05T03:58:27;100428.91;;;6.83
51149;BMP280;37210;50.058;8.688;2023-03-05T04:00:56;100460.13;;;6.85
51149;BMP280;37210;50.058;8.688;2023-03-05T04:03:24;100464.03;;;7.09
51149;BMP280;37210;50.058;8.688;2023-03-05T04:05:52;100451.28;;;6.74
51149;BMP280;37210;50.058;8.688;2023-03-05T04:08:19;100460.50;;;7.04
51149;BMP280;37210;50.058;8.688;2023-03-05T04:10:47;100447.91;;;6.79
51149;BMP280;37210;50.058;8.688;2023-03-05T04:13:14;100456.81;;;6.92
51149;BMP280;37210;50.058;8.688;2023-03-05T04:15:42;100406.22;;;6.73
51149;BMP280;37210;50.058;8.688;2023-03-05T04:18:11;100443.81;;;6.92
51149;BMP280;37210;50.058;8.688;2023-03-05T04:20:39;100400.31;;;6.83
51149;BMP280;37210;50.058;8.688;2023-03-05T04:23:07;100456.91;;;6.96
51149;BMP280;37210;50.058;8.688;2023-03-05T04:25:34;100456.34;;;6.68
51149;BMP280;37210;50.058;8.688;2023-03-05T04:28:02;100457.75;;;6.97
51149;BMP280;37210;50.058;8.688;2023-03-05T04:30:29;100451.63;;;6.92
51149;BMP280;37210;50.058;8.688;2023-03-05T04:32:57;100454.41;;;7.04
51149;BMP280;37210;50.058;8.688;2023-03-05T04:35:26;100453.31;;;6.91
51149;BMP280;37210;50.058;8.688;2023-03-05T04:37:54;100458.41;;;6.84
51149;BMP280;37210;50.058;8.688;2023-03-05T04:40:21;100459.22;;;6.81
51149;BMP280;37210;50.058;8.688;2023-03-05T04:42:49;100439.13;;;6.74
51149;BMP280;37210;50.058;8.688;2023-03-05T04:45:16;100422.09;;;6.42
51149;BMP280;37210;50.058;8.688;2023-03-05T04:47:44;100402.16;;;6.42
51149;BMP280;37210;50.058;8.688;2023-03-05T04:50:12;100431.28;;;6.26
51149;BMP280;37210;50.058;8.688;2023-03-05T04:52:42;100427.06;;;6.31
51149;BMP280;37210;50.058;8.688;2023-03-05T04:55:12;100453.53;;;6.57
51149;BMP280;37210;50.058;8.688;2023-03-05T04:57:41;100426.25;;;6.34
51149;BMP280;37210;50.058;8.688;2023-03-05T05:00:11;100453.28;;;6.43
51149;BMP280;37210;50.058;8.688;2023-03-05T05:02:42;100452.78;;;6.63
51149;BMP280;37210;50.058;8.688;2023-03-05T05:05:15;100454.75;;;6.31
51149;BMP280;37210;50.058;8.688;2023-03-05T05:07:45;100460.28;;;6.46
51149;BMP280;37210;50.058;8.688;2023-03-05T05:10:14;100407.09;;;6.29
51149;BMP280;37210;50.058;8.688;2023-03-05T05:12:42;100426.72;;;6.58
51149;BMP280;37210;50.058;8.688;2023-03-05T05:15:11;100410.00;;;6.45
51149;BMP280;37210;50.058;8.688;2023-03-05T05:17:39;100434.31;;;6.49
51149;BMP280;37210;50.058;8.688;2023-03-05T05:20:09;100418.47;;;6.34
51149;BMP280;37210;50.058;8.688;2023-03-05T05:22:37;100411.63;;;6.39
51149;BMP280;37210;50.058;8.688;2023-03-05T05:25:07;100423.59;;;6.32
51149;BMP280;37210;50.058;8.688;2023-03-05T05:27:37;100418.94;;;6.60
51149;BMP280;37210;50.058;8.688;2023-03-05T05:30:07;100421.66;;;6.66
51149;BMP280;37210;50.058;8.688;2023-03-05T05:32:35;100418.31;;;6.73
51149;BMP280;37210;50.058;8.688;2023-03-05T05:35:03;100428.66;;;6.70
51149;BMP280;37210;50.058;8.688;2023-03-05T05:37:31;100425.22;;;6.71
51149;BMP280;37210;50.058;8.688;2023-03-05T05:39:59;100401.44;;;6.50
51149;BMP280;37210;50.058;8.688;2023-03-05T05:42:27;100418.84;;;6.55
51149;BMP280;37210;50.058;8.688;2023-03-05T05:44:55;100403.16;;;6.49
51149;BMP280;37210;50.058;8.688;2023-03-05T05:47:22;100361.91;;;6.21
51149;BMP280;37210;50.058;8.688;2023-03-05T05:49:50;100362.94;;;6.29
51149;BMP280;37210;50.058;8.688;2023-03-05T05:52:18;100407.75;;;6.64
51149;BMP280;37210;50.058;8.688;2023-03-05T05:54:46;100406.31;;;6.78
51149;BMP280;37210;50.058;8.688;2023-03-05T05:57:13;100410.63;;;6.79
51149;BMP280;37210;50.058;8.688;2023-03-05T05:59:43;100392.41;;;6.76
51149;BMP280;37210;50.058;8.688;2023-03-05T06:02:11;100402.94;;;6.85
51149;BMP280;37210;50.058;8.688;2023-03-05T06:04:39;100387.84;;;6.66
51149;BMP280;37210;50.058;8.688;2023-03-05T06:07:06;100400.97;;;6.72
51149;BMP280;37210;50.058;8.688;2023-03-05T06:09:34;100404.50;;;6.75
51149;BMP280;37210;50.058;8.688;2023-03-05T06:12:02;100392.25;;;6.68
51149;BMP280;37210;50.058;8.688;2023-03-05T06:14:30;100390.31;;;6.57
51149;BMP280;37210;50.058;8.688;2023-03-05T06:16:59;100394.06;;;6.72
51149;BMP280;37210;50.058;8.688;2023-03-05T06:19:26;100290.00;;;6.18
51149;BMP280;37210;50.058;8.688;2023-03-05T06:21:54;100375.63;;;6.60
51149;BMP280;37210;50.058;8.688;2023-03-05T06:24:22;100339.06;;;6.48
51149;BMP280;37210;50.058;8.688;2023-03-05T06:26:50;100373.44;;;6.83
51149;BMP280;37210;50.058;8.688;2023-03-05T06:29:17;100390.81;;;6.84
51149;BMP280;37210;50.058;8.688;2023-03-05T06:31:45;100377.72;;;6.79
51149;BMP280;37210;50.058;8.688;2023-03-05T06:34:14;100384.75;;;6.85
51149;BMP280;37210;50.058;8.688;2023-03-05T06:36:41;100386.34;;;6.78
51149;BMP280;37210;50.058;8.688;2023-03-05T06:39:09;100389.66;;;6.68
51149;BMP280;37210;50.058;8.688;2023-03-05T06:41:37;100386.91;;;6.61
51149;BMP280;37210;50.058;8.688;2023-03-05T06:44:05;100392.25;;;6.68
51149;BMP280;37210;50.058;8.688;2023-03-05T06:46:34;100399.81;;;6.55
51149;BMP280;37210;50.058;8.688;2023-03-05T06:49:04;100361.25;;;6.32
51149;BMP280;37210;50.058;8.688;2023-03-05T06:51:36;100404.03;;;6.50
51149;BMP280;37210;50.058;8.688;2023-03-05T06:54:07;100398.03;;;6.52
51149;BMP280;37210;50.058;8.688;2023-03-05T06:56:37;100353.81;;;6.51
51149;BMP280;37210;50.058;8.688;2023-03-05T06:59:07;100405.16;;;6.64
51149;BMP280;37210;50.058;8.688;2023-03-05T07:01:35;100407.03;;;6.71
51149;BMP280;37210;50.058;8.688;2023-03-05T07:04:03;100399.94;;;6.62
51149;BMP280;37210;50.058;8.688;2023-03-05T07:06:34;100392.03;;;6.56
51149;BMP280;37210;50.058;8.688;2023-03-05T07:09:05;100412.03;;;6.60
51149;BMP280;37210;50.058;8.688;2023-03-05T07:11:33;100406.75;;;6.56
51149;BMP280;37210;50.058;8.688;2023-03-05T07:14:02;100411.94;;;6.56
51149;BMP280;37210;50.058;8.688;2023-03-05T07:16:36;100410.31;;;6.61
51149;BMP280;37210;50.058;8.688;2023-03-05T07:19:04;100410.25;;;6.58
51149;BMP280;37210;50.058;8.688;2023-03-05T07:21:34;100387.44;;;6.41
51149;BMP280;37210;50.058;8.688;2023-03-05T07:24:03;100378.25;;;6.60
51149;BMP280;37210;50.058;8.688;2023-03-05T07:26:31;100397.13;;;6.52
51149;BMP280;37210;50.058;8.688;2023-03-05T07:28:59;100400.72;;;6.57
51149;BMP280;37210;50.058;8.688;2023-03-05T07:31:28;100338.44;;;6.16
51149;BMP280;37210;50.058;8.688;2023-03-05T07:33:57;100400.00;;;6.65
51149;BMP280;37210;50.058;8.688;2023-03-05T07:36:26;100407.56;;;6.53
51149;BMP280;37210;50.058;8.688;2023-03-05T07:38:56;100394.72;;;6.61
51149;BMP280;37210;50.058;8.688;2023-03-05T07:41:23;100308.06;;;5.69
51149;BMP280;37210;50.058;8.688;2023-03-05T07:43:52;100390.84;;;6.39
51149;BMP280;37210;50.058;8.688;2023-03-05T07:46:24;100392.81;;;6.51
51149;BMP280;37210;50.058;8.688;2023-03-05T07:48:53;100399.66;;;6.47
51149;BMP280;37210;50.058;8.688;2023-03-05T07:51:21;100369.72;;;6.22
51149;BMP280;37210;50.058;8.688;2023-03-05T07:53:52;100405.59;;;6.88
51149;BMP280;37210;50.058;8.688;2023-03-05T07:56:25;100400.78;;;7.09
51149;BMP280;37210;50.058;8.688;2023-03-05T07:58:57;100392.19;;;7.16
51149;BMP280;37210;50.058;8.688;2023-03-05T08:01:24;100402.78;;;7.26
51149;BMP280;37210;50.058;8.688;2023-03-05T08:03:52;100373.63;;;6.93
51149;BMP280;37210;50.058;8.688;2023-03-05T08:06:19;100398.16;;;7.09
51149;BMP280;37210;50.058;8.688;2023-03-05T08:08:47;100400.06;;;7.20
51149;BMP280;37210;50.058;8.688;2023-03-05T08:11:15;100396.41;;;7.08
51149;BMP280;37210;50.058;8.688;2023-03-05T08:13:44;100370.41;;;7.08
51149;BMP280;37210;50.058;8.688;2023-03-05T08:16:13;100391.47;;;7.26
51149;BMP280;37210;50.058;8.688;2023-03-05T08:18:42;100393.72;;;7.02
51149;BMP280;37210;50.058;8.688;2023-03-05T08:21:15;100384.31;;;7.11
51149;BMP280;37210;50.058;8.688;2023-03-05T08:23:44;100364.41;;;7.13
51149;BMP280;37210;50.058;8.688;2023-03-05T08:26:13;100380.63;;;7.53
51149;BMP280;37210;50.058;8.688;2023-03-05T08:28:43;100342.44;;;6.95
51149;BMP280;37210;50.058;8.688;2023-03-05T08:31:13;100387.81;;;7.13
51149;BMP280;37210;50.058;8.688;2023-03-05T08:33:42;100365.22;;;7.09
51149;BMP280;37210;50.058;8.688;2023-03-05T08:36:10;100359.09;;;7.07
51149;BMP280;37210;50.058;8.688;2023-03-05T08:38:38;100381.69;;;7.10
51149;BMP280;37210;50.058;8.688;2023-03-05T08:41:05;100360.69;;;6.98
51149;BMP280;37210;50.058;8.688;2023-03-05T08:43:33;100373.06;;;7.12
51149;BMP280;37210;50.058;8.688;2023-03-05T08:46:02;100339.34;;;6.65
51149;BMP280;37210;50.058;8.688;2023-03-05T08:48:30;100382.22;;;6.88
51149;BMP280;37210;50.058;8.688;2023-03-05T08:51:03;100370.31;;;7.03
51149;BMP280;37210;50.058;8.688;2023-03-05T08:53:31;100374.66;;;7.03
51149;BMP280;37210;50.058;8.688;2023-03-05T08:56:00;100378.72;;;6.87
51149;BMP280;37210;50.058;8.688;2023-03-05T08:58:27;100373.63;;;6.95
51149;BMP280;37210;50.058;8.688;2023-03-05T09:00:55;100350.03;;;6.81
51149;BMP280;37210;50.058;8.688;2023-03-05T09:03:23;100373.69;;;6.96
51149;BMP280;37210;50.058;8.688;2023-03-05T09:05:51;100371.13;;;7.01
51149;BMP280;37210;50.058;8.688;2023-03-05T09:08:19;100368.53;;;6.99
51149;BMP280;37210;50.058;8.688;2023-03-05T09:10:47;100353.94;;;7.09
51149;BMP280;37210;50.058;8.688;2023-03-05T09:13:15;100362.69;;;7.15
51149;BMP280;37210;50.058;8.688;2023-03-05T09:15:43;100356.59;;;7.12
51149;BMP280;37210;50.058;8.688;2023-03-05T09:18:10;100326.25;;;6.60
51149;BMP280;37210;50.058;8.688;2023-03-05T09:20:39;100362.34;;;6.93
51149;BMP280;37210;50.058;8.688;2023-03-05T09:23:06;100352.91;;;6.98
51149;BMP280;37210;50.058;8.688;2023-03-05T09:25:33;100351.53;;;7.22
51149;BMP280;37210;50.058;8.688;2023-03-05T09:28:01;100349.31;;;6.91
51149;BMP280;37210;50.058;8.688;2023-03-05T09:30:28;100338.38;;;7.10
51149;BMP280;37210;50.058;8.688;2023-03-05T09:32:55;100348.75;;;7.10
51149;BMP280;37210;50.058;8.688;2023-03-05T09:35:23;100349.91;;;7.28
51149;BMP280;37210;50.058;8.688;2023-03-05T09:37:52;100345.59;;;7.31
51149;BMP280;37210;50.058;8.688;2023-03-05T09:40:20;100336.59;;;7.09
51149;BMP280;37210;50.058;8.688;2023-03-05T09:43:03;100341.84;;;7.11
51149;BMP280;37210;50.058;8.688;2023-03-05T09:45:41;100336.75;;;7.20
51149;BMP280;37210;50.058;8.688;2023-03-05T09:48:25;100331.53;;;7.18
51149;BMP280;37210;50.058;8.688;2023-03-05T09:51:11;100332.69;;;7.39
51149;BMP280;37210;50.058;8.688;2023-03-05T09:53:47;100329.19;;;7.37
51149;BMP280;37210;50.058;8.688;2023-03-05T09:56:21;100317.72;;;7.22
51149;BMP280;37210;50.058;8.688;2023-03-05T09:58:53;100307.38;;;7.25
51149;BMP280;37210;50.058;8.688;2023-03-05T10:01:28;100293.50;;;7.25
51149;BMP280;37210;50.058;8.688;2023-03-05T10:04:03;100325.09;;;7.52
51149;BMP280;37210;50.058;8.688;2023-03-05T10:06:48;100318.16;;;7.53
51149;BMP280;37210;50.058;8.688;2023-03-05T10:09:30;100316.25;;;7.38
51149;BMP280;37210;50.058;8.688;2023-03-05T10:12:14;100312.97;;;7.54
51149;BMP280;37210;50.058;8.688;2023-03-05T10:14:51;100304.28;;;7.51
51149;BMP280;37210;50.058;8.688;2023-03-05T10:20:54;100301.97;;;7.76
51149;BMP280;37210;50.058;8.688;2023-03-05T10:23:48;100289.91;;;7.84
51149;BMP280;37210;50.058;8.688;2023-03-05T10:26:32;100293.63;;;8.04
51149;BMP280;37210;50.058;8.688;2023-03-05T10:29:18;100265.59;;;7.82
51149;BMP280;37210;50.058;8.688;2023-03-05T10:32:09;100264.16;;;8.07
51149;BMP280;37210;50.058;8.688;2023-03-05T10:34:54;100280.88;;;8.26
51149;BMP280;37210;50.058;8.688;2023-03-05T10:37:47;100261.53;;;8.08
51149;BMP280;37210;50.058;8.688;2023-03-05T10:40:29;100287.31;;;7.84
51149;BMP280;37210;50.058;8.688;2023-03-05T10:43:11;100271.06;;;8.06
51149;BMP280;37210;50.058;8.688;2023-03-05T10:45:51;100272.09;;;8.21
51149;BMP280;37210;50.058;8.688;2023-03-05T10:48:26;100244.25;;;8.18
51149;BMP280;37210;50.058;8.688;2023-03-05T10:51:03;100271.13;;;8.13
51149;BMP280;37210;50.058;8.688;2023-03-05T10:53:47;100262.50;;;8.15
51149;BMP280;37210;50.058;8.688;2023-03-05T10:56:22;100256.34;;;8.12
51149;BMP280;37210;50.058;8.688;2023-03-05T10:58:53;100247.41;;;7.85
51149;BMP280;37210;50.058;8.688;2023-03-05T11:01:23;100274.19;;;7.75
51149;BMP280;37210;50.058;8.688;2023-03-05T11:03:55;100256.84;;;7.76
51149;BMP280;37210;50.058;8.688;2023-03-05T11:06:28;100262.16;;;7.86
51149;BMP280;37210;50.058;8.688;2023-03-05T11:09:18;100263.03;;;7.85
51149;BMP280;37210;50.058;8.688;2023-03-05T11:12:03;100258.66;;;7.83
51149;BMP280;37210;50.058;8.688;2023-03-05T11:14:41;100262.06;;;7.79
51149;BMP280;37210;50.058;8.688;2023-03-05T11:17:26;100238.25;;;7.44
51149;BMP280;37210;50.058;8.688;2023-03-05T11:19:57;100261.63;;;7.41
51149;BMP280;37210;50.058;8.688;2023-03-05T11:23:09;100259.84;;;7.39
51149;BMP280;37210;50.058;8.688;2023-03-05T11:25:56;100237.16;;;7.28
51149;BMP280;37210;50.058;8.688;2023-03-05T11:28:30;100256.34;;;7.35
51149;BMP280;37210;50.058;8.688;2023-03-05T11:31:02;100249.63;;;7.55
51149;BMP280;37210;50.058;8.688;2023-03-05T11:33:34;100249.69;;;7.60
51149;BMP280;37210;50.058;8.688;2023-03-05T11:36:17;100252.91;;;7.38
51149;BMP280;37210;50.058;8.688;2023-03-05T11:38:55;100252.06;;;7.40
51149;BMP280;37210;50.058;8.688;2023-03-05T11:41:36;100233.66;;;7.23
51149;BMP280;37210;50.058;8.688;2023-03-05T11:44:10;100244.28;;;7.42
51149;BMP280;37210;50.058;8.688;2023-03-05T11:46:42;100231.94;;;7.27
51149;BMP280;37210;50.058;8.688;2023-03-05T11:49:17;100239.97;;;7.42
51149;BMP280;37210;50.058;8.688;2023-03-05T11:51:55;100230.28;;;7.32
51149;BMP280;37210;50.058;8.688;2023-03-05T11:54:32;100224.56;;;7.60
51149;BMP280;37210;50.058;8.688;2023-03-05T11:57:10;100221.13;;;7.63
51149;BMP280;37210;50.058;8.688;2023-03-05T11:59:42;100178.66;;;7.67
51149;BMP280;37210;50.058;8.688;2023-03-05T12:02:16;100209.19;;;7.83
51149;BMP280;37210;50.058;8.688;2023-03-05T12:04:47;100203.25;;;7.99
51149;BMP280;37210;50.058;8.688;2023-03-05T12:07:20;100192.78;;;7.93
51149;BMP280;37210;50.058;8.688;2023-03-05T12:09:54;100181.56;;;7.98
51149;BMP280;37210;50.058;8.688;2023-03-05T12:12:31;100174.59;;;7.96
51149;BMP280;37210;50.058;8.688;2023-03-05T12:15:23;100177.41;;;8.19
51149;BMP280;37210;50.058;8.688;2023-03-05T12:18:06;100168.88;;;8.30
51149;BMP280;37210;50.058;8.688;2023-03-05T12:20:46;100158.59;;;8.53
51149;BMP280;37210;50.058;8.688;2023-03-05T12:23:23;100153.97;;;8.19
51149;BMP280;37210;50.058;8.688;2023-03-05T12:25:54;100155.88;;;8.38
51149;BMP280;37210;50.058;8.688;2023-03-05T12:28:55;100147.25;;;8.45
51149;BMP280;37210;50.058;8.688;2023-03-05T12:31:41;100143.09;;;8.75
51149;BMP280;37210;50.058;8.688;2023-03-05T12:34:45;100143.19;;;8.91
51149;BMP280;37210;50.058;8.688;2023-03-05T12:40:30;100128.41;;;8.94
51149;BMP280;37210;50.058;8.688;2023-03-05T12:43:00;100125.00;;;9.10
51149;BMP280;37210;50.058;8.688;2023-03-05T12:45:34;100105.84;;;9.02
51149;BMP280;37210;50.058;8.688;2023-03-05T12:48:41;100125.78;;;8.91
51149;BMP280;37210;50.058;8.688;2023-03-05T12:51:27;100123.00;;;8.55
51149;BMP280;37210;50.058;8.688;2023-03-05T12:56:56;100108.19;;;8.52
51149;BMP280;37210;50.058;8.688;2023-03-05T12:59:31;100104.66;;;8.43
51149;BMP280;37210;50.058;8.688;2023-03-05T13:02:20;100098.72;;;8.68
51149;BMP280;37210;50.058;8.688;2023-03-05T13:04:56;100065.41;;;8.25
51149;BMP280;37210;50.058;8.688;2023-03-05T13:07:26;100096.78;;;8.32
51149;BMP280;37210;50.058;8.688;2023-03-05T13:09:55;100090.75;;;8.42
51149;BMP280;37210;50.058;8.688;2023-03-05T13:12:26;100096.97;;;8.61
51149;BMP280;37210;50.058;8.688;2023-03-05T13:15:00;100091.88;;;8.90
51149;BMP280;37210;50.058;8.688;2023-03-05T13:17:34;100095.28;;;8.73
51149;BMP280;37210;50.058;8.688;2023-03-05T13:20:29;100078.81;;;8.86
51149;BMP280;37210;50.058;8.688;2023-03-05T13:23:19;100082.38;;;9.07
51149;BMP280;37210;50.058;8.688;2023-03-05T13:26:00;100084.88;;;8.81
51149;BMP280;37210;50.058;8.688;2023-03-05T13:28:31;100083.00;;;8.56
51149;BMP280;37210;50.058;8.688;2023-03-05T13:31:00;100076.13;;;8.68
51149;BMP280;37210;50.058;8.688;2023-03-05T13:33:31;100074.41;;;8.76
51149;BMP280;37210;50.058;8.688;2023-03-05T13:36:00;100077.84;;;8.65
51149;BMP280;37210;50.058;8.688;2023-03-05T13:38:32;100071.69;;;8.54
51149;BMP280;37210;50.058;8.688;2023-03-05T13:41:15;100070.75;;;8.41
51149;BMP280;37210;50.058;8.688;2023-03-05T13:43:49;100063.03;;;8.55
51149;BMP280;37210;50.058;8.688;2023-03-05T13:46:25;100057.75;;;8.44
51149;BMP280;37210;50.058;8.688;2023-03-05T13:48:54;100037.75;;;8.40
51149;BMP280;37210;50.058;8.688;2023-03-05T13:51:22;100052.56;;;8.49
51149;BMP280;37210;50.058;8.688;2023-03-05T13:54:07;100042.19;;;8.55
51149;BMP280;37210;50.058;8.688;2023-03-05T13:56:48;100014.28;;;8.36
51149;BMP280;37210;50.058;8.688;2023-03-05T13:59:19;100032.50;;;8.31
51149;BMP280;37210;50.058;8.688;2023-03-05T14:01:48;100038.66;;;8.50
51149;BMP280;37210;50.058;8.688;2023-03-05T14:04:19;100033.28;;;8.21
51149;BMP280;37210;50.058;8.688;2023-03-05T14:06:53;99986.25;;;7.98
51149;BMP280;37210;50.058;8.688;2023-03-05T14:09:26;99944.53;;;7.97
51149;BMP280;37210;50.058;8.688;2023-03-05T14:12:00;99866.22;;;7.55
51149;BMP280;37210;50.058;8.688;2023-03-05T14:14:33;99976.84;;;8.22
51149;BMP280;37210;50.058;8.688;2023-03-05T14:17:20;99923.78;;;8.09
51149;BMP280;37210;50.058;8.688;2023-03-05T14:20:08;99969.88;;;8.21
51149;BMP280;37210;50.058;8.688;2023-03-05T14:22:47;99977.66;;;8.16
51149;BMP280;37210;50.058;8.688;2023-03-05T14:25:27;100002.09;;;8.32
51149;BMP280;37210;50.058;8.688;2023-03-05T14:28:00;99969.94;;;8.25
51149;BMP280;37210;50.058;8.688;2023-03-05T14:30:29;99963.78;;;8.20
51149;BMP280;37210;50.058;8.688;2023-03-05T14:33:00;99980.31;;;8.24
51149;BMP280;37210;50.058;8.688;2023-03-05T14:35:31;99948.09;;;8.08
51149;BMP280;37210;50.058;8.688;2023-03-05T14:37:59;99988.22;;;8.37
51149;BMP280;37210;50.058;8.688;2023-03-05T14:40:30;99988.25;;;8.48
51149;BMP280;37210;50.058;8.688;2023-03-05T14:43:00;99974.31;;;8.37
51149;BMP280;37210;50.058;8.688;2023-03-05T14:45:32;99841.94;;;7.62